sensor_id;sensor_type;location;lat;lon;timestamp;temperature;humidity
1461;DHT22;724;49.910;12.530;2022-12-29T00:00:18;4.30;1.00
1461;DHT22;724;49.910;12.530;2022-12-29T00:02:45;4.30;1.00
1461;DHT22;724;49.910;12.530;2022-12-29T00:05:11;4.30;1.00
1461;DHT22;724;49.910;12.530;2022-12-29T00:07:38;4.20;1.00
1461;DHT22;724;49.910;12.530;2022-12-29T00:10:06;4.20;1.00
1461;DHT22;724;49.910;12.530;2022-12-29T00:12:33;4.30;1.00
1461;DHT22;724;49.910;12.530;2022-12-29T00:15:15;4.40;1.00
1461;DHT22;724;49.910;12.530;2022-12-29T00:17:59;4.40;1.00
1461;DHT22;724;49.910;12.530;2022-12-29T00:20:25;4.30;1.00
1461;DHT22;724;49.910;12.530;2022-12-29T00:23:24;4.50;1.00
1461;DHT22;724;49.910;12.530;2022-12-29T00:26:12;4.40;1.00
1461;DHT22;724;49.910;12.530;2022-12-29T00:28:57;4.40;1.00
1461;DHT22;724;49.910;12.530;2022-12-29T00:31:42;4.40;1.00
1461;DHT22;724;49.910;12.530;2022-12-29T00:34:26;4.40;1.00
1461;DHT22;724;49.910;12.530;2022-12-29T00:37:10;4.40;1.00
1461;DHT22;724;49.910;12.530;2022-12-29T00:39:37;4.50;1.00
1461;DHT22;724;49.910;12.530;2022-12-29T00:42:22;4.60;1.00
1461;DHT22;724;49.910;12.530;2022-12-29T00:45:06;4.70;1.00
1461;DHT22;724;49.910;12.530;2022-12-29T00:47:34;4.70;1.00
1461;DHT22;724;49.910;12.530;2022-12-29T00:50:01;4.70;1.00
1461;DHT22;724;49.910;12.530;2022-12-29T00:52:27;4.70;1.00
1461;DHT22;724;49.910;12.530;2022-12-29T00:54:53;4.80;1.00
1461;DHT22;724;49.910;12.530;2022-12-29T00:57:20;4.70;1.00
1461;DHT22;724;49.910;12.530;2022-12-29T00:59:47;4.70;1.00
1461;DHT22;724;49.910;12.530;2022-12-29T01:02:13;4.80;1.00
1461;DHT22;724;49.910;12.530;2022-12-29T01:04:41;4.90;1.00
1461;DHT22;724;49.910;12.530;2022-12-29T01:07:08;5.00;1.00
1461;DHT22;724;49.910;12.530;2022-12-29T01:09:35;5.00;1.00
1461;DHT22;724;49.910;12.530;2022-12-29T01:12:19;5.00;1.00
1461;DHT22;724;49.910;12.530;2022-12-29T01:15:06;4.80;1.00
1461;DHT22;724;49.910;12.530;2022-12-29T01:17:33;4.90;1.00
1461;DHT22;724;49.910;12.530;2022-12-29T01:20:01;4.90;1.00
1461;DHT22;724;49.910;12.530;2022-12-29T01:22:28;4.80;1.00
1461;DHT22;724;49.910;12.530;2022-12-29T01:24:55;4.80;1.00
1461;DHT22;724;49.910;12.530;2022-12-29T01:27:21;4.70;1.00
1461;DHT22;724;49.910;12.530;2022-12-29T01:29:48;4.70;1.00
1461;DHT22;724;49.910;12.530;2022-12-29T01:32:15;4.70;1.00
1461;DHT22;724;49.910;12.530;2022-12-29T01:34:42;4.60;1.00
1461;DHT22;724;49.910;12.530;2022-12-29T01:37:10;4.70;1.00
1461;DHT22;724;49.910;12.530;2022-12-29T01:39:37;4.70;1.00
1461;DHT22;724;49.910;12.530;2022-12-29T01:42:04;4.60;1.00
1461;DHT22;724;49.910;12.530;2022-12-29T01:44:54;4.70;1.00
1461;DHT22;724;49.910;12.530;2022-12-29T01:47:31;4.70;1.00
1461;DHT22;724;49.910;12.530;2022-12-29T01:50:04;4.60;1.00
1461;DHT22;724;49.910;12.530;2022-12-29T01:52:35;4.70;1.00
1461;DHT22;724;49.910;12.530;2022-12-29T01:55:04;4.70;1.00
1461;DHT22;724;49.910;12.530;2022-12-29T01:57:33;4.70;1.00
1461;DHT22;724;49.910;12.530;2022-12-29T02:00:03;4.80;1.00
1461;DHT22;724;49.910;12.530;2022-12-29T02:02:31;4.70;1.00
1461;DHT22;724;49.910;12.530;2022-12-29T02:05:00;4.80;1.00
1461;DHT22;724;49.910;12.530;2022-12-29T02:07:32;4.80;1.00
1461;DHT22;724;49.910;12.530;2022-12-29T02:10:00;4.80;1.00
1461;DHT22;724;49.910;12.530;2022-12-29T02:12:28;4.80;1.00
1461;DHT22;724;49.910;12.530;2022-12-29T02:14:57;4.70;1.00
1461;DHT22;724;49.910;12.530;2022-12-29T02:17:40;4.70;1.00
1461;DHT22;724;49.910;12.530;2022-12-29T02:26:39;4.80;1.00
1461;DHT22;724;49.910;12.530;2022-12-29T02:29:34;5.00;1.00
1461;DHT22;724;49.910;12.530;2022-12-29T02:32:12;5.00;1.00
1461;DHT22;724;49.910;12.530;2022-12-29T02:34:49;5.00;1.00
1461;DHT22;724;49.910;12.530;2022-12-29T02:37:24;5.10;1.00
1461;DHT22;724;49.910;12.530;2022-12-29T02:39:56;5.20;1.00
1461;DHT22;724;49.910;12.530;2022-12-29T02:42:33;5.20;1.00
1461;DHT22;724;49.910;12.530;2022-12-29T02:45:04;5.30;1.00
1461;DHT22;724;49.910;12.530;2022-12-29T02:47:37;5.30;1.00
1461;DHT22;724;49.910;12.530;2022-12-29T02:50:08;5.40;1.00
1461;DHT22;724;49.910;12.530;2022-12-29T02:52:39;5.30;1.00
1461;DHT22;724;49.910;12.530;2022-12-29T02:55:07;5.30;1.00
1461;DHT22;724;49.910;12.530;2022-12-29T02:57:34;5.30;1.00
1461;DHT22;724;49.910;12.530;2022-12-29T03:00:05;5.20;1.00
1461;DHT22;724;49.910;12.530;2022-12-29T03:03:08;5.20;1.00
1461;DHT22;724;49.910;12.530;2022-12-29T03:05:58;5.20;1.00
1461;DHT22;724;49.910;12.530;2022-12-29T03:08:34;5.30;1.00
1461;DHT22;724;49.910;12.530;2022-12-29T03:11:03;5.30;1.00
1461;DHT22;724;49.910;12.530;2022-12-29T03:13:35;5.30;1.00
1461;DHT22;724;49.910;12.530;2022-12-29T03:16:28;5.30;1.00
1461;DHT22;724;49.910;12.530;2022-12-29T03:19:02;5.40;1.00
1461;DHT22;724;49.910;12.530;2022-12-29T03:21:35;5.60;1.00
1461;DHT22;724;49.910;12.530;2022-12-29T03:24:24;5.60;1.00
1461;DHT22;724;49.910;12.530;2022-12-29T03:26:53;5.50;1.00
1461;DHT22;724;49.910;12.530;2022-12-29T03:29:21;5.50;1.00
1461;DHT22;724;49.910;12.530;2022-12-29T03:31:49;5.60;1.00
1461;DHT22;724;49.910;12.530;2022-12-29T03:34:20;5.60;1.00
1461;DHT22;724;49.910;12.530;2022-12-29T03:36:50;5.60;1.00
1461;DHT22;724;49.910;12.530;2022-12-29T03:39:21;5.50;1.00
1461;DHT22;724;49.910;12.530;2022-12-29T03:41:50;5.50;1.00
1461;DHT22;724;49.910;12.530;2022-12-29T03:44:21;5.50;1.00
1461;DHT22;724;49.910;12.530;2022-12-29T03:46:47;5.50;1.00
1461;DHT22;724;49.910;12.530;2022-12-29T03:49:15;5.60;1.00
1461;DHT22;724;49.910;12.530;2022-12-29T03:51:43;5.60;1.00
1461;DHT22;724;49.910;12.530;2022-12-29T03:54:10;5.50;1.00
1461;DHT22;724;49.910;12.530;2022-12-29T03:56:36;5.50;1.00
1461;DHT22;724;49.910;12.530;2022-12-29T03:59:03;5.50;1.00
1461;DHT22;724;49.910;12.530;2022-12-29T04:01:30;5.40;1.00
1461;DHT22;724;49.910;12.530;2022-12-29T04:03:56;5.50;1.00
1461;DHT22;724;49.910;12.530;2022-12-29T04:06:23;5.50;1.00
1461;DHT22;724;49.910;12.530;2022-12-29T04:08:51;5.40;1.00
1461;DHT22;724;49.910;12.530;2022-12-29T04:11:18;5.40;1.00
1461;DHT22;724;49.910;12.530;2022-12-29T04:13:45;5.40;1.00
1461;DHT22;724;49.910;12.530;2022-12-29T04:16:11;5.50;1.00
1461;DHT22;724;49.910;12.530;2022-12-29T04:18:38;5.40;99.90
1461;DHT22;724;49.910;12.530;2022-12-29T04:21:05;5.40;99.90
1461;DHT22;724;49.910;12.530;2022-12-29T04:23:34;5.50;99.90
1461;DHT22;724;49.910;12.530;2022-12-29T04:26:02;5.40;99.90
1461;DHT22;724;49.910;12.530;2022-12-29T04:28:29;5.40;99.90
1461;DHT22;724;49.910;12.530;2022-12-29T04:30:56;5.40;99.90
1461;DHT22;724;49.910;12.530;2022-12-29T04:33:23;5.40;99.90
1461;DHT22;724;49.910;12.530;2022-12-29T04:35:50;5.40;99.90
1461;DHT22;724;49.910;12.530;2022-12-29T04:38:18;5.50;99.90
1461;DHT22;724;49.910;12.530;2022-12-29T04:40:45;5.50;99.90
1461;DHT22;724;49.910;12.530;2022-12-29T04:43:13;5.50;99.90
1461;DHT22;724;49.910;12.530;2022-12-29T04:45:43;5.50;99.90
1461;DHT22;724;49.910;12.530;2022-12-29T04:48:10;5.50;99.90
1461;DHT22;724;49.910;12.530;2022-12-29T04:50:37;5.60;99.90
1461;DHT22;724;49.910;12.530;2022-12-29T04:53:03;5.60;99.90
1461;DHT22;724;49.910;12.530;2022-12-29T04:55:30;5.60;99.90
1461;DHT22;724;49.910;12.530;2022-12-29T04:57:57;5.70;99.90
1461;DHT22;724;49.910;12.530;2022-12-29T05:00:25;5.60;99.90
1461;DHT22;724;49.910;12.530;2022-12-29T05:02:52;5.60;99.90
1461;DHT22;724;49.910;12.530;2022-12-29T05:05:19;5.70;99.90
1461;DHT22;724;49.910;12.530;2022-12-29T05:07:45;5.70;99.90
1461;DHT22;724;49.910;12.530;2022-12-29T05:10:12;5.60;99.90
1461;DHT22;724;49.910;12.530;2022-12-29T05:12:39;5.60;99.90
1461;DHT22;724;49.910;12.530;2022-12-29T05:15:07;5.50;99.90
1461;DHT22;724;49.910;12.530;2022-12-29T05:17:36;5.60;99.90
1461;DHT22;724;49.910;12.530;2022-12-29T05:20:03;5.60;99.90
1461;DHT22;724;49.910;12.530;2022-12-29T05:22:30;5.50;99.90
1461;DHT22;724;49.910;12.530;2022-12-29T05:24:57;5.40;1.00
1461;DHT22;724;49.910;12.530;2022-12-29T05:27:24;5.40;1.00
1461;DHT22;724;49.910;12.530;2022-12-29T05:29:50;5.40;99.90
1461;DHT22;724;49.910;12.530;2022-12-29T05:32:17;5.50;1.00
1461;DHT22;724;49.910;12.530;2022-12-29T05:34:45;5.50;1.00
1461;DHT22;724;49.910;12.530;2022-12-29T05:37:12;5.60;99.90
1461;DHT22;724;49.910;12.530;2022-12-29T05:39:39;5.70;99.90
1461;DHT22;724;49.910;12.530;2022-12-29T05:42:05;5.60;99.90
1461;DHT22;724;49.910;12.530;2022-12-29T05:44:32;5.60;99.90
1461;DHT22;724;49.910;12.530;2022-12-29T05:46:59;5.60;99.90
1461;DHT22;724;49.910;12.530;2022-12-29T05:49:25;5.50;99.90
1461;DHT22;724;49.910;12.530;2022-12-29T05:51:54;5.50;99.90
1461;DHT22;724;49.910;12.530;2022-12-29T05:54:20;5.50;99.90
1461;DHT22;724;49.910;12.530;2022-12-29T05:56:47;5.50;99.90
1461;DHT22;724;49.910;12.530;2022-12-29T05:59:14;5.40;99.90
1461;DHT22;724;49.910;12.530;2022-12-29T06:01:40;5.50;99.90
1461;DHT22;724;49.910;12.530;2022-12-29T06:04:07;5.50;99.90
1461;DHT22;724;49.910;12.530;2022-12-29T06:06:34;5.50;99.90
1461;DHT22;724;49.910;12.530;2022-12-29T06:09:02;5.40;99.90
1461;DHT22;724;49.910;12.530;2022-12-29T06:11:28;5.40;99.90
1461;DHT22;724;49.910;12.530;2022-12-29T06:13:55;5.50;99.90
1461;DHT22;724;49.910;12.530;2022-12-29T06:16:22;5.50;99.90
1461;DHT22;724;49.910;12.530;2022-12-29T06:18:48;5.50;99.90
1461;DHT22;724;49.910;12.530;2022-12-29T06:21:15;5.40;99.90
1461;DHT22;724;49.910;12.530;2022-12-29T06:23:42;5.40;99.90
1461;DHT22;724;49.910;12.530;2022-12-29T06:26:10;5.40;99.90
1461;DHT22;724;49.910;12.530;2022-12-29T06:28:36;5.40;99.90
1461;DHT22;724;49.910;12.530;2022-12-29T06:31:03;5.40;99.90
1461;DHT22;724;49.910;12.530;2022-12-29T06:33:30;5.40;99.90
1461;DHT22;724;49.910;12.530;2022-12-29T06:35:57;5.40;99.90
1461;DHT22;724;49.910;12.530;2022-12-29T06:38:23;5.50;99.90
1461;DHT22;724;49.910;12.530;2022-12-29T06:40:50;5.40;99.90
1461;DHT22;724;49.910;12.530;2022-12-29T06:43:18;5.40;99.90
1461;DHT22;724;49.910;12.530;2022-12-29T06:45:45;5.40;99.90
1461;DHT22;724;49.910;12.530;2022-12-29T06:48:12;5.40;99.90
1461;DHT22;724;49.910;12.530;2022-12-29T06:50:38;5.50;99.90
1461;DHT22;724;49.910;12.530;2022-12-29T06:53:05;5.50;99.90
1461;DHT22;724;49.910;12.530;2022-12-29T06:55:32;5.50;99.90
1461;DHT22;724;49.910;12.530;2022-12-29T06:57:59;5.60;99.90
1461;DHT22;724;49.910;12.530;2022-12-29T07:00:28;5.50;99.90
1461;DHT22;724;49.910;12.530;2022-12-29T07:02:55;5.60;99.90
1461;DHT22;724;49.910;12.530;2022-12-29T07:05:23;5.70;99.90
1461;DHT22;724;49.910;12.530;2022-12-29T07:07:50;5.70;99.90
1461;DHT22;724;49.910;12.530;2022-12-29T07:10:17;5.60;99.90
1461;DHT22;724;49.910;12.530;2022-12-29T07:12:44;5.60;99.90
1461;DHT22;724;49.910;12.530;2022-12-29T07:15:11;5.70;99.90
1461;DHT22;724;49.910;12.530;2022-12-29T07:17:39;5.80;99.90
1461;DHT22;724;49.910;12.530;2022-12-29T07:20:07;5.80;99.90
1461;DHT22;724;49.910;12.530;2022-12-29T07:22:34;5.80;99.90
1461;DHT22;724;49.910;12.530;2022-12-29T07:25:00;5.80;99.90
1461;DHT22;724;49.910;12.530;2022-12-29T07:27:28;5.70;99.90
1461;DHT22;724;49.910;12.530;2022-12-29T07:29:55;5.90;99.90
1461;DHT22;724;49.910;12.530;2022-12-29T07:32:22;5.90;99.90
1461;DHT22;724;49.910;12.530;2022-12-29T07:34:50;6.00;99.90
1461;DHT22;724;49.910;12.530;2022-12-29T07:37:16;6.10;99.90
1461;DHT22;724;49.910;12.530;2022-12-29T07:39:43;6.10;99.90
1461;DHT22;724;49.910;12.530;2022-12-29T07:42:10;6.10;99.90
1461;DHT22;724;49.910;12.530;2022-12-29T07:44:37;6.10;99.90
1461;DHT22;724;49.910;12.530;2022-12-29T07:47:03;6.20;99.90
1461;DHT22;724;49.910;12.530;2022-12-29T07:49:30;6.20;99.90
1461;DHT22;724;49.910;12.530;2022-12-29T07:51:58;6.20;99.90
1461;DHT22;724;49.910;12.530;2022-12-29T07:54:25;6.30;99.90
1461;DHT22;724;49.910;12.530;2022-12-29T07:56:52;6.40;99.90
1461;DHT22;724;49.910;12.530;2022-12-29T07:59:19;6.40;99.90
1461;DHT22;724;49.910;12.530;2022-12-29T08:01:46;6.40;99.90
1461;DHT22;724;49.910;12.530;2022-12-29T08:04:12;6.40;99.90
1461;DHT22;724;49.910;12.530;2022-12-29T08:06:39;6.30;99.90
1461;DHT22;724;49.910;12.530;2022-12-29T08:09:08;6.40;99.90
1461;DHT22;724;49.910;12.530;2022-12-29T08:11:34;6.40;99.90
1461;DHT22;724;49.910;12.530;2022-12-29T08:14:02;6.40;99.90
1461;DHT22;724;49.910;12.530;2022-12-29T08:16:28;6.30;99.90
1461;DHT22;724;49.910;12.530;2022-12-29T08:18:56;6.30;99.90
1461;DHT22;724;49.910;12.530;2022-12-29T08:21:22;6.30;99.90
1461;DHT22;724;49.910;12.530;2022-12-29T08:23:49;6.30;99.90
1461;DHT22;724;49.910;12.530;2022-12-29T08:26:17;6.30;99.90
1461;DHT22;724;49.910;12.530;2022-12-29T08:28:44;6.30;96.50
1461;DHT22;724;49.910;12.530;2022-12-29T08:31:10;6.30;97.50
1461;DHT22;724;49.910;12.530;2022-12-29T08:33:37;6.30;98.10
1461;DHT22;724;49.910;12.530;2022-12-29T08:36:06;6.20;99.90
1461;DHT22;724;49.910;12.530;2022-12-29T08:38:33;6.30;97.10
1461;DHT22;724;49.910;12.530;2022-12-29T08:41:00;6.20;99.90
1461;DHT22;724;49.910;12.530;2022-12-29T08:43:28;6.20;99.90
1461;DHT22;724;49.910;12.530;2022-12-29T08:45:57;6.20;98.10
1461;DHT22;724;49.910;12.530;2022-12-29T08:48:23;6.20;96.40
1461;DHT22;724;49.910;12.530;2022-12-29T08:50:50;6.20;99.10
1461;DHT22;724;49.910;12.530;2022-12-29T08:53:18;6.30;99.90
1461;DHT22;724;49.910;12.530;2022-12-29T08:55:45;6.50;94.50
1461;DHT22;724;49.910;12.530;2022-12-29T08:58:12;6.90;76.80
1461;DHT22;724;49.910;12.530;2022-12-29T09:00:41;6.80;37.10
1461;DHT22;724;49.910;12.530;2022-12-29T09:03:08;6.60;40.00
1461;DHT22;724;49.910;12.530;2022-12-29T09:05:34;6.60;48.10
1461;DHT22;724;49.910;12.530;2022-12-29T09:08:01;6.60;49.60
1461;DHT22;724;49.910;12.530;2022-12-29T09:10:28;6.60;52.30
1461;DHT22;724;49.910;12.530;2022-12-29T09:12:55;6.60;37.50
1461;DHT22;724;49.910;12.530;2022-12-29T09:15:22;6.70;42.70
1461;DHT22;724;49.910;12.530;2022-12-29T09:17:50;7.00;40.10
1461;DHT22;724;49.910;12.530;2022-12-29T09:20:18;7.30;26.70
1461;DHT22;724;49.910;12.530;2022-12-29T09:22:46;7.30;6.40
1461;DHT22;724;49.910;12.530;2022-12-29T09:25:13;7.20;1.00
1461;DHT22;724;49.910;12.530;2022-12-29T09:27:40;7.10;13.00
1461;DHT22;724;49.910;12.530;2022-12-29T09:30:09;7.10;9.50
1461;DHT22;724;49.910;12.530;2022-12-29T09:32:36;7.30;26.60
1461;DHT22;724;49.910;12.530;2022-12-29T09:35:05;7.80;1.00
1461;DHT22;724;49.910;12.530;2022-12-29T09:37:32;7.30;1.00
1461;DHT22;724;49.910;12.530;2022-12-29T09:39:59;7.40;1.00
1461;DHT22;724;49.910;12.530;2022-12-29T09:42:29;7.50;1.00
1461;DHT22;724;49.910;12.530;2022-12-29T09:45:07;7.40;1.00
1461;DHT22;724;49.910;12.530;2022-12-29T09:47:36;7.50;1.00
1461;DHT22;724;49.910;12.530;2022-12-29T09:50:12;7.60;1.00
1461;DHT22;724;49.910;12.530;2022-12-29T09:52:46;7.60;1.00
1461;DHT22;724;49.910;12.530;2022-12-29T09:55:17;7.60;1.00
1461;DHT22;724;49.910;12.530;2022-12-29T09:57:47;7.60;1.00
1461;DHT22;724;49.910;12.530;2022-12-29T10:00:18;7.70;1.00
1461;DHT22;724;49.910;12.530;2022-12-29T10:02:49;7.70;1.00
1461;DHT22;724;49.910;12.530;2022-12-29T10:05:27;8.30;1.00
1461;DHT22;724;49.910;12.530;2022-12-29T10:10:53;7.90;1.00
1461;DHT22;724;49.910;12.530;2022-12-29T10:13:28;7.90;1.00
1461;DHT22;724;49.910;12.530;2022-12-29T10:16:03;7.70;1.00
1461;DHT22;724;49.910;12.530;2022-12-29T10:18:43;7.70;1.00
1461;DHT22;724;49.910;12.530;2022-12-29T10:21:22;7.70;1.00
1461;DHT22;724;49.910;12.530;2022-12-29T10:23:53;7.70;1.00
1461;DHT22;724;49.910;12.530;2022-12-29T10:26:23;7.80;1.00
1461;DHT22;724;49.910;12.530;2022-12-29T10:28:54;7.90;1.00
1461;DHT22;724;49.910;12.530;2022-12-29T10:31:24;7.80;1.00
1461;DHT22;724;49.910;12.530;2022-12-29T10:33:55;7.90;1.00
1461;DHT22;724;49.910;12.530;2022-12-29T10:36:29;7.90;1.00
1461;DHT22;724;49.910;12.530;2022-12-29T10:39:06;7.90;1.00
1461;DHT22;724;49.910;12.530;2022-12-29T10:41:40;7.90;1.00
1461;DHT22;724;49.910;12.530;2022-12-29T10:44:13;8.00;1.00
1461;DHT22;724;49.910;12.530;2022-12-29T10:46:42;8.50;1.00
1461;DHT22;724;49.910;12.530;2022-12-29T10:49:16;8.50;1.00
1461;DHT22;724;49.910;12.530;2022-12-29T10:51:48;8.90;1.00
1461;DHT22;724;49.910;12.530;2022-12-29T10:54:21;9.10;1.00
1461;DHT22;724;49.910;12.530;2022-12-29T10:56:52;10.70;1.00
1461;DHT22;724;49.910;12.530;2022-12-29T10:59:22;10.20;1.00
1461;DHT22;724;49.910;12.530;2022-12-29T11:01:56;9.70;1.00
1461;DHT22;724;49.910;12.530;2022-12-29T11:04:34;10.70;1.00
1461;DHT22;724;49.910;12.530;2022-12-29T11:07:03;9.50;1.00
1461;DHT22;724;49.910;12.530;2022-12-29T11:09:34;9.40;1.00
1461;DHT22;724;49.910;12.530;2022-12-29T11:12:18;8.90;1.00
1461;DHT22;724;49.910;12.530;2022-12-29T11:14:45;8.60;1.00
1461;DHT22;724;49.910;12.530;2022-12-29T11:17:16;8.40;1.00
1461;DHT22;724;49.910;12.530;2022-12-29T11:19:43;8.30;1.00
1461;DHT22;724;49.910;12.530;2022-12-29T11:22:21;8.30;1.00
1461;DHT22;724;49.910;12.530;2022-12-29T11:24:50;8.30;1.00
1461;DHT22;724;49.910;12.530;2022-12-29T11:27:19;8.30;1.00
1461;DHT22;724;49.910;12.530;2022-12-29T11:29:48;8.40;1.00
1461;DHT22;724;49.910;12.530;2022-12-29T11:32:19;8.40;1.00
1461;DHT22;724;49.910;12.530;2022-12-29T11:34:47;8.30;1.00
1461;DHT22;724;49.910;12.530;2022-12-29T11:37:17;8.80;1.00
1461;DHT22;724;49.910;12.530;2022-12-29T11:39:50;12.50;1.00
1461;DHT22;724;49.910;12.530;2022-12-29T11:42:21;13.60;1.00
1461;DHT22;724;49.910;12.530;2022-12-29T11:44:50;14.60;1.00
1461;DHT22;724;49.910;12.530;2022-12-29T11:47:25;14.50;1.00
1461;DHT22;724;49.910;12.530;2022-12-29T11:49:55;14.50;1.00
1461;DHT22;724;49.910;12.530;2022-12-29T11:52:26;13.90;1.00
1461;DHT22;724;49.910;12.530;2022-12-29T11:54:55;13.50;1.00
1461;DHT22;724;49.910;12.530;2022-12-29T11:57:23;12.70;1.00
1461;DHT22;724;49.910;12.530;2022-12-29T11:59:51;12.50;1.00
1461;DHT22;724;49.910;12.530;2022-12-29T12:02:41;14.30;1.00
1461;DHT22;724;49.910;12.530;2022-12-29T12:05:21;13.30;1.00
1461;DHT22;724;49.910;12.530;2022-12-29T12:07:55;12.50;1.00
1461;DHT22;724;49.910;12.530;2022-12-29T12:10:26;12.20;1.00
1461;DHT22;724;49.910;12.530;2022-12-29T12:13:02;11.50;1.00
1461;DHT22;724;49.910;12.530;2022-12-29T12:15:34;10.10;1.00
1461;DHT22;724;49.910;12.530;2022-12-29T12:18:08;9.60;1.00
1461;DHT22;724;49.910;12.530;2022-12-29T12:20:42;9.40;1.00
1461;DHT22;724;49.910;12.530;2022-12-29T12:23:22;9.30;1.00
1461;DHT22;724;49.910;12.530;2022-12-29T12:26:02;9.60;1.00
1461;DHT22;724;49.910;12.530;2022-12-29T12:28:37;9.30;1.00
1461;DHT22;724;49.910;12.530;2022-12-29T12:31:15;9.30;1.00
1461;DHT22;724;49.910;12.530;2022-12-29T12:33:46;9.20;1.00
1461;DHT22;724;49.910;12.530;2022-12-29T12:36:47;9.00;1.00
1461;DHT22;724;49.910;12.530;2022-12-29T12:46:38;8.80;1.00
1461;DHT22;724;49.910;12.530;2022-12-29T12:49:26;8.70;1.00
1461;DHT22;724;49.910;12.530;2022-12-29T12:52:01;8.60;1.00
1461;DHT22;724;49.910;12.530;2022-12-29T12:54:41;8.50;1.00
1461;DHT22;724;49.910;12.530;2022-12-29T12:57:15;8.50;1.00
1461;DHT22;724;49.910;12.530;2022-12-29T12:59:52;8.40;1.00
1461;DHT22;724;49.910;12.530;2022-12-29T13:02:39;8.40;1.00
1461;DHT22;724;49.910;12.530;2022-12-29T13:05:33;8.40;1.00
1461;DHT22;724;49.910;12.530;2022-12-29T13:08:29;8.30;1.00
1461;DHT22;724;49.910;12.530;2022-12-29T13:11:04;8.30;1.00
1461;DHT22;724;49.910;12.530;2022-12-29T13:13:58;8.20;1.00
1461;DHT22;724;49.910;12.530;2022-12-29T13:16:34;8.40;1.00
1461;DHT22;724;49.910;12.530;2022-12-29T13:19:10;8.50;1.00
1461;DHT22;724;49.910;12.530;2022-12-29T13:21:49;8.50;1.00
1461;DHT22;724;49.910;12.530;2022-12-29T13:24:22;8.50;1.00
1461;DHT22;724;49.910;12.530;2022-12-29T13:26:54;8.40;1.00
1461;DHT22;724;49.910;12.530;2022-12-29T13:29:33;8.50;1.00
1461;DHT22;724;49.910;12.530;2022-12-29T13:32:12;8.50;1.00
1461;DHT22;724;49.910;12.530;2022-12-29T13:34:56;8.40;1.00
1461;DHT22;724;49.910;12.530;2022-12-29T13:37:27;8.40;1.00
1461;DHT22;724;49.910;12.530;2022-12-29T13:39:59;8.40;1.00
1461;DHT22;724;49.910;12.530;2022-12-29T13:42:28;8.40;1.00
1461;DHT22;724;49.910;12.530;2022-12-29T13:44:58;8.40;1.00
1461;DHT22;724;49.910;12.530;2022-12-29T13:47:28;8.40;1.00
1461;DHT22;724;49.910;12.530;2022-12-29T13:50:01;8.30;1.00
1461;DHT22;724;49.910;12.530;2022-12-29T13:52:34;8.20;1.00
1461;DHT22;724;49.910;12.530;2022-12-29T13:55:16;8.20;1.00
1461;DHT22;724;49.910;12.530;2022-12-29T13:57:48;8.20;1.00
1461;DHT22;724;49.910;12.530;2022-12-29T14:00:20;8.10;1.00
1461;DHT22;724;49.910;12.530;2022-12-29T14:03:08;8.10;1.00
1461;DHT22;724;49.910;12.530;2022-12-29T14:05:40;8.10;1.00
1461;DHT22;724;49.910;12.530;2022-12-29T14:08:16;8.10;1.00
1461;DHT22;724;49.910;12.530;2022-12-29T14:10:47;8.10;1.00
1461;DHT22;724;49.910;12.530;2022-12-29T14:13:16;8.20;1.00
1461;DHT22;724;49.910;12.530;2022-12-29T14:15:44;8.20;1.00
1461;DHT22;724;49.910;12.530;2022-12-29T14:18:14;8.20;1.00
1461;DHT22;724;49.910;12.530;2022-12-29T14:20:53;8.20;1.00
1461;DHT22;724;49.910;12.530;2022-12-29T14:23:36;8.30;1.00
1461;DHT22;724;49.910;12.530;2022-12-29T14:26:12;8.20;1.00
1461;DHT22;724;49.910;12.530;2022-12-29T14:28:40;8.20;1.00
1461;DHT22;724;49.910;12.530;2022-12-29T14:31:34;8.20;1.00
1461;DHT22;724;49.910;12.530;2022-12-29T14:37:17;8.20;1.00
1461;DHT22;724;49.910;12.530;2022-12-29T14:39:48;8.20;1.00
1461;DHT22;724;49.910;12.530;2022-12-29T14:42:19;8.20;1.00
1461;DHT22;724;49.910;12.530;2022-12-29T14:44:49;8.20;1.00
1461;DHT22;724;49.910;12.530;2022-12-29T14:47:20;8.20;1.00
1461;DHT22;724;49.910;12.530;2022-12-29T14:49:49;8.20;1.00
1461;DHT22;724;49.910;12.530;2022-12-29T14:52:21;8.10;1.00
1461;DHT22;724;49.910;12.530;2022-12-29T14:54:53;8.10;1.00
1461;DHT22;724;49.910;12.530;2022-12-29T14:57:35;8.10;1.00
1461;DHT22;724;49.910;12.530;2022-12-29T15:00:18;8.00;1.00
1461;DHT22;724;49.910;12.530;2022-12-29T15:02:48;8.10;1.00
1461;DHT22;724;49.910;12.530;2022-12-29T15:05:40;8.10;1.00
1461;DHT22;724;49.910;12.530;2022-12-29T15:08:10;8.10;1.00
1461;DHT22;724;49.910;12.530;2022-12-29T15:10:42;8.10;1.00
1461;DHT22;724;49.910;12.530;2022-12-29T15:13:15;8.10;1.00
1461;DHT22;724;49.910;12.530;2022-12-29T15:15:43;8.00;1.00
1461;DHT22;724;49.910;12.530;2022-12-29T15:18:18;8.00;1.00
1461;DHT22;724;49.910;12.530;2022-12-29T15:20:50;7.90;1.00
1461;DHT22;724;49.910;12.530;2022-12-29T15:23:19;7.90;1.00
1461;DHT22;724;49.910;12.530;2022-12-29T15:25:47;7.90;1.00
1461;DHT22;724;49.910;12.530;2022-12-29T15:28:16;7.90;9.40
1461;DHT22;724;49.910;12.530;2022-12-29T15:30:51;7.90;19.70
1461;DHT22;724;49.910;12.530;2022-12-29T15:33:19;7.90;26.70
1461;DHT22;724;49.910;12.530;2022-12-29T15:35:50;8.00;26.00
1461;DHT22;724;49.910;12.530;2022-12-29T15:38:23;8.00;29.40
1461;DHT22;724;49.910;12.530;2022-12-29T15:40:53;7.90;42.30
1461;DHT22;724;49.910;12.530;2022-12-29T15:43:32;7.90;61.80
1461;DHT22;724;49.910;12.530;2022-12-29T15:46:01;8.00;84.30
1461;DHT22;724;49.910;12.530;2022-12-29T15:48:28;8.00;90.30
1461;DHT22;724;49.910;12.530;2022-12-29T15:50:56;8.00;96.40
1461;DHT22;724;49.910;12.530;2022-12-29T15:53:28;8.00;99.90
1461;DHT22;724;49.910;12.530;2022-12-29T15:55:57;7.90;99.90
1461;DHT22;724;49.910;12.530;2022-12-29T15:58:27;8.00;99.90
1461;DHT22;724;49.910;12.530;2022-12-29T16:00:56;7.90;99.90
1461;DHT22;724;49.910;12.530;2022-12-29T16:03:25;7.90;99.90
1461;DHT22;724;49.910;12.530;2022-12-29T16:05:56;7.90;99.90
1461;DHT22;724;49.910;12.530;2022-12-29T16:08:29;7.80;99.90
1461;DHT22;724;49.910;12.530;2022-12-29T16:10:58;7.80;99.90
1461;DHT22;724;49.910;12.530;2022-12-29T16:13:28;7.70;99.90
1461;DHT22;724;49.910;12.530;2022-12-29T16:16:00;7.80;99.90
1461;DHT22;724;49.910;12.530;2022-12-29T16:18:32;7.80;99.90
1461;DHT22;724;49.910;12.530;2022-12-29T16:21:00;7.70;99.90
1461;DHT22;724;49.910;12.530;2022-12-29T16:23:30;7.70;99.90
1461;DHT22;724;49.910;12.530;2022-12-29T16:25:58;7.70;99.90
1461;DHT22;724;49.910;12.530;2022-12-29T16:28:30;7.70;99.90
1461;DHT22;724;49.910;12.530;2022-12-29T16:31:03;7.60;99.90
1461;DHT22;724;49.910;12.530;2022-12-29T16:33:38;7.60;99.90
1461;DHT22;724;49.910;12.530;2022-12-29T16:36:28;7.50;99.90
1461;DHT22;724;49.910;12.530;2022-12-29T16:39:37;7.50;99.90
1461;DHT22;724;49.910;12.530;2022-12-29T16:42:33;7.40;99.90
1461;DHT22;724;49.910;12.530;2022-12-29T16:48:15;7.40;99.90
1461;DHT22;724;49.910;12.530;2022-12-29T16:50:44;7.30;99.90
1461;DHT22;724;49.910;12.530;2022-12-29T16:53:19;7.30;99.90
1461;DHT22;724;49.910;12.530;2022-12-29T16:55:48;7.30;99.90
1461;DHT22;724;49.910;12.530;2022-12-29T16:58:18;7.20;99.90
1461;DHT22;724;49.910;12.530;2022-12-29T17:00:46;7.20;99.90
1461;DHT22;724;49.910;12.530;2022-12-29T17:03:13;7.20;99.90
1461;DHT22;724;49.910;12.530;2022-12-29T17:05:40;7.20;1.00
1461;DHT22;724;49.910;12.530;2022-12-29T17:08:17;7.30;1.00
1461;DHT22;724;49.910;12.530;2022-12-29T17:10:49;7.30;1.00
1461;DHT22;724;49.910;12.530;2022-12-29T17:13:34;7.30;1.00
1461;DHT22;724;49.910;12.530;2022-12-29T17:16:02;7.30;1.00